Time;durP1;ratioP1;P1;durP2;ratioP2;P2;SDS_P1;SDS_P2;PMS_P1;PMS_P2;Temp;Humidity;BMP_temperature;BMP_pressure;BME280_temperature;BME280_humidity;BME280_pressure;Samples;Min_cycle;Max_cycle;Signal;HPM_P1;HPM_P2
2021/03/15 00:00:59;;;;;;;19.65;12.98;;;4.00;90.20;;;;;;5030391;28;20041;-79
2021/03/15 00:03:25;;;;;;;18.13;12.38;;;4.00;90.20;;;;;;5052909;28;20032;-79
2021/03/15 00:05:51;;;;;;;20.55;10.98;;;4.10;90.20;;;;;;5053202;28;20382;-78
2021/03/15 00:08:19;;;;;;;19.80;11.60;;;4.10;90.00;;;;;;5032113;28;20120;-77
2021/03/15 00:10:45;;;;;;;20.38;11.05;;;4.10;90.10;;;;;;5053167;28;20024;-78
2021/03/15 00:13:11;;;;;;;22.45;13.20;;;4.10;90.10;;;;;;5048612;28;20024;-77
2021/03/15 00:15:37;;;;;;;17.92;11.13;;;4.10;90.10;;;;;;5034203;28;20378;-77
2021/03/15 00:18:04;;;;;;;22.45;12.85;;;4.10;90.10;;;;;;5047226;28;20351;-77
2021/03/15 00:20:30;;;;;;;24.38;11.93;;;4.10;90.10;;;;;;5033553;28;20057;-79
2021/03/15 00:22:56;;;;;;;16.20;11.15;;;4.10;90.10;;;;;;5033905;28;20021;-78
2021/03/15 00:25:22;;;;;;;19.60;12.63;;;4.10;90.10;;;;;;5043056;28;20025;-78
2021/03/15 00:27:48;;;;;;;18.83;11.32;;;4.10;90.10;;;;;;5051327;28;20033;-77
2021/03/15 00:30:16;;;;;;;18.02;12.95;;;4.00;90.10;;;;;;5034155;28;20417;-78
2021/03/15 00:32:43;;;;;;;23.60;12.93;;;4.00;90.10;;;;;;5041303;28;20025;-79
2021/03/15 00:35:14;;;;;;;22.85;11.82;;;4.10;90.20;;;;;;5034402;28;20056;-79
2021/03/15 00:37:41;;;;;;;22.90;15.15;;;4.10;90.20;;;;;;5024670;28;20052;-81
2021/03/15 00:40:09;;;;;;;17.52;12.02;;;4.00;90.40;;;;;;5047023;28;20475;-78
2021/03/15 00:42:35;;;;;;;22.65;13.40;;;3.90;90.60;;;;;;5049089;28;20025;-79
2021/03/15 00:45:02;;;;;;;16.60;10.38;;;3.90;90.90;;;;;;5039240;28;20024;-80
2021/03/15 00:47:33;;;;;;;24.23;12.00;;;3.90;90.90;;;;;;5034848;28;20025;-77
2021/03/15 00:49:59;;;;;;;20.45;12.00;;;3.90;90.90;;;;;;5041848;28;20104;-79
2021/03/15 00:52:25;;;;;;;22.30;12.88;;;3.80;91.00;;;;;;5026822;28;20486;-78
2021/03/15 00:54:50;;;;;;;20.77;12.30;;;3.80;91.20;;;;;;5036923;28;20112;-78
2021/03/15 00:57:17;;;;;;;24.73;13.65;;;3.80;91.20;;;;;;5035426;28;20088;-78
2021/03/15 00:59:44;;;;;;;26.52;14.35;;;3.80;91.30;;;;;;5037137;28;20041;-78
2021/03/15 01:02:10;;;;;;;22.67;14.93;;;3.80;91.40;;;;;;5043798;28;20019;-78
2021/03/15 01:04:37;;;;;;;29.10;13.70;;;3.80;91.40;;;;;;5046175;28;20145;-79
2021/03/15 01:07:08;;;;;;;24.55;14.70;;;3.80;91.50;;;;;;5028339;28;20100;-79
2021/03/15 01:09:34;;;;;;;24.27;13.27;;;3.80;91.60;;;;;;5021282;28;20574;-79
2021/03/15 01:12:00;;;;;;;23.70;14.18;;;3.80;91.60;;;;;;5031827;28;20053;-78
2021/03/15 01:14:26;;;;;;;25.20;16.02;;;3.80;91.70;;;;;;5032093;28;20022;-78
2021/03/15 01:16:52;;;;;;;25.45;14.45;;;3.70;91.70;;;;;;5032004;28;20022;-78
2021/03/15 01:19:18;;;;;;;26.13;15.48;;;3.80;91.80;;;;;;5031511;28;20025;-77
2021/03/15 01:21:44;;;;;;;26.27;15.35;;;3.70;91.90;;;;;;5032239;28;20486;-77
2021/03/15 01:24:09;;;;;;;27.10;13.77;;;3.70;92.00;;;;;;5013853;28;20024;-78
2021/03/15 01:26:36;;;;;;;26.02;14.38;;;3.60;92.10;;;;;;5032416;28;20079;-78
2021/03/15 01:29:02;;;;;;;27.85;15.75;;;3.60;92.30;;;;;;5013477;28;20040;-81
2021/03/15 01:31:28;;;;;;;20.75;14.15;;;3.60;92.40;;;;;;5031995;28;20018;-79
2021/03/15 01:33:53;;;;;;;30.25;16.27;;;3.60;92.50;;;;;;5031663;28;20045;-77
2021/03/15 01:36:19;;;;;;;30.08;16.90;;;3.60;92.80;;;;;;5031654;28;20093;-79
2021/03/15 01:38:45;;;;;;;27.10;16.05;;;3.50;92.90;;;;;;5027934;28;20029;-79
2021/03/15 01:41:11;;;;;;;30.70;16.58;;;3.50;93.10;;;;;;5031678;28;20063;-78
2021/03/15 01:43:37;;;;;;;30.52;15.73;;;3.50;93.20;;;;;;5031691;28;20025;-79
2021/03/15 01:46:03;;;;;;;28.85;18.30;;;3.50;93.20;;;;;;5025724;28;20021;-79
2021/03/15 01:48:28;;;;;;;28.92;17.38;;;3.40;93.30;;;;;;5031607;28;20030;-79
2021/03/15 01:50:55;;;;;;;32.92;18.83;;;3.40;93.40;;;;;;5031502;28;20497;-78
2021/03/15 01:53:22;;;;;;;23.95;15.40;;;3.40;93.40;;;;;;5031448;28;20033;-80
2021/03/15 01:55:49;;;;;;;24.73;15.05;;;3.40;93.40;;;;;;5016112;28;20022;-79
2021/03/15 01:58:16;;;;;;;27.98;16.77;;;3.40;93.40;;;;;;5031345;28;20052;-80
2021/03/15 02:00:43;;;;;;;27.20;17.50;;;3.40;93.50;;;;;;5031244;28;20112;-80
2021/03/15 02:03:09;;;;;;;27.42;15.80;;;3.40;93.60;;;;;;5033153;28;20029;-78
2021/03/15 02:05:37;;;;;;;29.30;18.67;;;3.30;93.60;;;;;;5035113;28;20029;-79
2021/03/15 02:08:05;;;;;;;26.58;17.05;;;3.30;93.80;;;;;;5035218;28;20042;-78
2021/03/15 02:10:31;;;;;;;28.55;19.10;;;3.30;93.90;;;;;;5035315;28;20021;-79
2021/03/15 02:13:03;;;;;;;33.10;19.40;;;3.30;94.10;;;;;;5017682;28;20029;-78
2021/03/15 02:15:58;;;;;;;21.85;14.95;;;3.20;94.20;;;;;;5034607;28;20022;-77
2021/03/15 02:18:41;;;;;;;31.85;18.15;;;3.20;94.40;;;;;;5035334;28;20025;-80
2021/03/15 02:21:46;;;;;;;29.33;16.40;;;3.20;94.50;;;;;;5034886;28;20425;-78
2021/03/15 02:24:50;;;;;;;26.13;16.80;;;3.10;94.60;;;;;;5034790;28;20598;-78
2021/03/15 02:27:43;;;;;;;35.70;21.20;;;3.10;94.90;;;;;;4992336;28;20040;-78
2021/03/15 02:30:28;;;;;;;34.58;19.23;;;3.00;95.10;;;;;;5007278;28;20399;-79
2021/03/15 02:33:18;;;;;;;33.65;19.70;;;3.00;95.20;;;;;;5034931;28;20017;-81
2021/03/15 02:35:46;;;;;;;24.35;15.27;;;3.00;95.30;;;;;;5034254;28;20028;-80
2021/03/15 02:38:14;;;;;;;33.05;18.90;;;3.00;95.40;;;;;;5029739;28;20069;-78
2021/03/15 02:40:47;;;;;;;36.72;22.77;;;2.90;95.60;;;;;;5034170;28;20367;-79
2021/03/15 02:43:18;;;;;;;37.40;22.02;;;2.90;95.80;;;;;;5034883;28;20017;-79
2021/03/15 02:45:45;;;;;;;43.80;25.05;;;2.90;96.00;;;;;;5030308;28;20572;-78
2021/03/15 02:48:13;;;;;;;40.22;21.20;;;2.90;96.00;;;;;;5034438;28;20029;-79
2021/03/15 02:50:43;;;;;;;39.38;23.85;;;2.90;96.10;;;;;;5017561;28;20489;-78
2021/03/15 02:53:16;;;;;;;37.47;22.65;;;2.90;96.10;;;;;;5039390;28;20378;-77
2021/03/15 02:55:45;;;;;;;39.72;23.13;;;2.90;96.20;;;;;;5040288;28;20021;-77
2021/03/15 02:58:12;;;;;;;47.63;26.40;;;2.90;96.20;;;;;;5033973;28;20025;-79
2021/03/15 03:00:39;;;;;;;42.08;21.77;;;2.90;96.30;;;;;;5033827;28;20048;-78
2021/03/15 03:03:06;;;;;;;37.10;22.17;;;2.90;96.20;;;;;;5011027;28;20406;-78
2021/03/15 03:05:33;;;;;;;40.05;22.65;;;2.90;96.10;;;;;;5034674;28;20029;-79
2021/03/15 03:08:00;;;;;;;41.88;24.50;;;2.90;96.10;;;;;;5034009;28;20040;-79
2021/03/15 03:10:27;;;;;;;40.03;22.83;;;2.90;96.10;;;;;;5034256;28;20052;-79
2021/03/15 03:12:56;;;;;;;39.78;23.98;;;2.90;96.10;;;;;;5033922;28;20025;-78
2021/03/15 03:15:26;;;;;;;34.13;20.08;;;2.90;96.20;;;;;;5032817;28;20021;-78
2021/03/15 03:17:56;;;;;;;45.08;26.27;;;3.00;96.20;;;;;;5033836;28;20117;-78
2021/03/15 03:20:23;;;;;;;41.05;24.77;;;3.00;96.20;;;;;;5034062;28;20018;-77
2021/03/15 03:22:53;;;;;;;42.45;24.50;;;3.00;96.20;;;;;;5033673;28;20026;-78
2021/03/15 03:25:21;;;;;;;39.70;24.38;;;3.00;96.20;;;;;;5016521;28;20116;-77
2021/03/15 03:27:53;;;;;;;42.42;21.67;;;3.00;96.10;;;;;;5016254;28;20029;-79
2021/03/15 03:30:24;;;;;;;38.65;21.08;;;3.00;96.10;;;;;;5033908;28;20025;-78
2021/03/15 03:32:51;;;;;;;32.08;18.30;;;3.10;96.00;;;;;;5031169;28;20048;-79
2021/03/15 03:35:17;;;;;;;30.42;19.00;;;3.00;95.90;;;;;;5016131;28;20021;-79
2021/03/15 03:37:42;;;;;;;44.05;25.67;;;3.00;95.90;;;;;;5032779;28;20497;-78
2021/03/15 03:40:09;;;;;;;45.17;22.02;;;3.10;95.90;;;;;;5036312;28;20021;-79
2021/03/15 03:42:34;;;;;;;41.05;23.00;;;3.10;95.90;;;;;;5033802;28;20486;-78
2021/03/15 03:45:01;;;;;;;38.67;22.75;;;3.20;95.90;;;;;;5033853;28;20057;-78
2021/03/15 03:47:26;;;;;;;39.90;22.20;;;3.20;95.80;;;;;;5033455;28;20014;-78
2021/03/15 03:49:52;;;;;;;38.17;24.42;;;3.20;95.70;;;;;;5033610;28;20021;-79
2021/03/15 03:52:22;;;;;;;39.97;23.50;;;3.30;95.60;;;;;;5016101;28;20028;-79
2021/03/15 03:54:53;;;;;;;36.85;22.08;;;3.30;95.50;;;;;;5034716;28;20021;-78
2021/03/15 03:57:30;;;;;;;38.85;21.67;;;3.30;95.40;;;;;;5035832;28;20101;-78
2021/03/15 03:59:59;;;;;;;30.33;18.85;;;3.30;95.20;;;;;;5041205;28;20041;-79
2021/03/15 04:02:25;;;;;;;34.47;19.83;;;3.30;95.00;;;;;;5053434;28;20160;-79
2021/03/15 04:05:03;;;;;;;41.00;24.00;;;3.30;94.80;;;;;;5034887;28;20032;-78
2021/03/15 04:07:29;;;;;;;;;;;3.30;94.80;;;;;;5055217;28;20555;-79
2021/03/15 04:10:05;;;;;;;36.97;22.60;;;3.30;94.80;;;;;;5054879;28;19931;-78
2021/03/15 04:12:33;;;;;;;31.42;20.40;;;3.30;94.80;;;;;;5054270;28;20033;-80
2021/03/15 04:15:01;;;;;;;31.75;22.38;;;3.40;94.60;;;;;;5053262;28;20020;-81
2021/03/15 04:17:32;;;;;;;;;;;3.40;94.50;;;;;;5033625;28;20098;-80
2021/03/15 04:20:01;;;;;;;41.58;23.38;;;3.40;94.40;;;;;;5034367;28;19912;-80
2021/03/15 04:22:29;;;;;;;33.00;20.25;;;3.40;94.60;;;;;;5050033;28;20087;-81
2021/03/15 04:25:01;;;;;;;33.80;21.08;;;3.30;94.60;;;;;;5053429;28;20017;-80
2021/03/15 04:27:28;;;;;;;37.53;15.20;;;3.40;94.90;;;;;;5052947;28;20094;-80
2021/03/15 04:29:56;;;;;;;27.85;18.88;;;3.40;94.80;;;;;;5035724;28;20041;-80
2021/03/15 04:32:22;;;;;;;29.48;18.58;;;3.40;94.60;;;;;;5035771;28;20060;-79
2021/03/15 04:34:50;;;;;;;26.20;18.58;;;3.40;94.50;;;;;;5052964;28;20053;-78
2021/03/15 04:37:17;;;;;;;28.88;18.58;;;3.40;94.50;;;;;;5048058;28;20055;-78
2021/03/15 04:39:44;;;;;;;26.55;17.42;;;3.40;94.50;;;;;;5053197;28;20017;-79
2021/03/15 04:42:10;;;;;;;35.00;20.47;;;3.50;94.50;;;;;;5054789;28;20048;-79
2021/03/15 04:44:40;;;;;;;34.33;19.38;;;3.50;94.30;;;;;;5059845;28;20025;-78
2021/03/15 04:47:06;;;;;;;27.10;17.55;;;3.50;94.20;;;;;;5052535;28;20043;-78
2021/03/15 04:49:33;;;;;;;20.77;12.65;;;3.60;93.90;;;;;;5045764;28;20038;-80
2021/03/15 04:52:01;;;;;;;25.50;15.57;;;3.50;93.60;;;;;;5034605;28;20363;-81
2021/03/15 04:54:28;;;;;;;30.20;20.40;;;3.50;93.80;;;;;;5045742;28;20021;-79
2021/03/15 04:56:55;;;;;;;30.42;19.33;;;3.40;93.90;;;;;;5052282;28;20103;-81
2021/03/15 04:59:22;;;;;;;26.23;17.10;;;3.40;94.00;;;;;;5050327;28;20471;-80
2021/03/15 05:01:49;;;;;;;29.40;20.75;;;3.40;93.90;;;;;;5032803;28;20273;-79
2021/03/15 05:04:17;;;;;;;25.90;17.95;;;3.50;93.80;;;;;;5032447;28;20026;-80
2021/03/15 05:06:44;;;;;;;25.65;18.98;;;3.50;93.70;;;;;;5014638;28;20017;-80
2021/03/15 05:09:13;;;;;;;24.40;16.27;;;3.60;93.50;;;;;;5032896;28;20041;-81
2021/03/15 05:11:41;;;;;;;28.90;18.42;;;3.60;93.40;;;;;;5033743;28;20018;-79
2021/03/15 05:14:07;;;;;;;25.70;18.50;;;3.60;93.40;;;;;;5032514;28;20017;-83
2021/03/15 05:16:37;;;;;;;23.33;16.38;;;3.60;93.30;;;;;;5026754;28;20018;-80
2021/03/15 05:19:07;;;;;;;27.45;17.42;;;3.60;93.20;;;;;;5034601;28;20056;-80
2021/03/15 05:21:34;;;;;;;19.60;13.98;;;3.60;93.20;;;;;;5034920;28;20025;-81
2021/03/15 05:24:02;;;;;;;28.45;19.70;;;3.50;93.10;;;;;;5032093;28;20025;-82
2021/03/15 05:26:29;;;;;;;28.10;18.25;;;3.50;93.40;;;;;;5032065;28;20025;-81
2021/03/15 05:28:58;;;;;;;24.00;17.00;;;3.50;93.40;;;;;;5032139;28;20040;-83
2021/03/15 05:31:25;;;;;;;28.10;18.20;;;3.50;93.30;;;;;;5032148;28;20535;-81
2021/03/15 05:33:52;;;;;;;20.47;15.43;;;3.60;93.30;;;;;;5014111;28;20470;-81
2021/03/15 05:36:19;;;;;;;23.15;15.90;;;3.60;93.10;;;;;;5024673;28;20263;-83
2021/03/15 05:38:45;;;;;;;26.52;17.42;;;3.60;92.90;;;;;;5034502;28;20509;-82
2021/03/15 05:41:14;;;;;;;24.23;15.70;;;3.60;93.00;;;;;;5018059;28;20116;-80
2021/03/15 05:44:03;;;;;;;27.42;18.35;;;3.60;92.80;;;;;;5016262;28;20029;-82
2021/03/15 05:46:53;;;;;;;25.45;18.73;;;3.50;93.00;;;;;;5015902;28;20051;-81
2021/03/15 05:49:57;;;;;;;27.00;15.27;;;3.50;93.20;;;;;;5031386;28;20075;-88
2021/03/15 05:52:41;;;;;;;31.80;18.98;;;3.40;93.20;;;;;;5018131;28;20022;-84
2021/03/15 05:55:44;;;;;;;29.77;17.20;;;3.30;93.40;;;;;;5017106;28;20051;-85
2021/03/15 05:58:39;;;;;;;30.13;17.55;;;3.30;93.90;;;;;;5035574;28;20029;-81
2021/03/15 06:01:24;;;;;;;26.35;15.88;;;3.20;94.20;;;;;;4991037;28;20064;-83
2021/03/15 06:04:32;;;;;;;32.28;17.85;;;3.20;94.40;;;;;;5008747;28;20113;-80
2021/03/15 06:07:04;;;;;;;25.90;18.23;;;3.00;94.50;;;;;;5034948;28;20040;-79
2021/03/15 06:09:36;;;;;;;26.08;18.48;;;3.00;94.70;;;;;;5039411;28;20439;-79
2021/03/15 06:12:06;;;;;;;28.15;20.13;;;2.90;94.80;;;;;;5037028;28;20035;-81
2021/03/15 06:14:36;;;;;;;24.90;16.80;;;2.90;95.10;;;;;;5019981;28;20022;-80
2021/03/15 06:17:02;;;;;;;30.90;20.52;;;2.90;95.30;;;;;;5035173;28;20018;-80
2021/03/15 06:19:32;;;;;;;34.10;21.08;;;2.80;95.30;;;;;;5049015;28;20112;-80
2021/03/15 06:21:58;;;;;;;29.77;17.67;;;2.80;95.50;;;;;;5036452;28;20029;-80
2021/03/15 06:24:25;;;;;;;27.98;16.25;;;2.80;95.70;;;;;;5036182;28;20032;-82
2021/03/15 06:26:51;;;;;;;34.40;21.87;;;2.70;95.80;;;;;;5036044;28;20018;-80
2021/03/15 06:29:17;;;;;;;28.67;18.05;;;2.70;96.00;;;;;;5036589;28;20029;-80
2021/03/15 06:31:50;;;;;;;32.47;20.70;;;2.70;95.70;;;;;;5037212;28;20490;-79
2021/03/15 06:34:18;;;;;;;32.47;21.40;;;2.70;95.90;;;;;;5025976;28;20475;-80
2021/03/15 06:36:44;;;;;;;34.92;23.17;;;2.60;96.00;;;;;;5045431;28;20052;-79
2021/03/15 06:39:11;;;;;;;33.50;21.92;;;2.60;96.10;;;;;;5036492;28;20021;-80
2021/03/15 06:41:41;;;;;;;32.35;20.33;;;2.60;96.20;;;;;;5036804;28;20175;-80
2021/03/15 06:44:09;;;;;;;32.53;23.35;;;2.60;96.50;;;;;;5009050;28;20087;-81
2021/03/15 06:46:35;;;;;;;28.75;20.10;;;2.60;96.40;;;;;;5035181;28;20017;-80
2021/03/15 06:49:02;;;;;;;29.17;19.67;;;2.50;96.30;;;;;;5040052;28;20041;-82
2021/03/15 06:51:27;;;;;;;27.20;18.25;;;2.50;96.60;;;;;;5034418;28;20016;-81
2021/03/15 06:53:53;;;;;;;32.28;22.38;;;2.50;96.70;;;;;;5033849;28;20108;-81
2021/03/15 06:56:24;;;;;;;35.53;24.38;;;2.40;96.60;;;;;;5035210;28;20029;-81
2021/03/15 06:58:54;;;;;;;29.35;19.38;;;2.40;97.20;;;;;;5035651;28;20021;-81
2021/03/15 07:01:25;;;;;;;35.97;23.63;;;2.40;96.90;;;;;;5034351;28;20489;-80
2021/03/15 07:04:03;;;;;;;37.50;23.27;;;2.30;96.70;;;;;;5022834;28;20029;-82
2021/03/15 07:06:37;;;;;;;39.30;27.08;;;2.30;97.00;;;;;;5016606;28;20449;-81
2021/03/15 07:09:16;;;;;;;41.25;25.90;;;2.10;96.80;;;;;;5034832;28;20021;-81
2021/03/15 07:11:42;;;;;;;38.22;24.35;;;2.10;97.20;;;;;;5034465;28;20494;-81
2021/03/15 07:14:25;;;;;;;35.05;24.00;;;2.10;97.20;;;;;;5033494;28;20024;-81
2021/03/15 07:17:01;;;;;;;37.97;23.25;;;2.10;97.40;;;;;;5034450;28;20022;-82
2021/03/15 07:19:27;;;;;;;36.13;25.00;;;2.10;97.30;;;;;;5034010;28;20533;-81
2021/03/15 07:21:53;;;;;;;39.05;25.15;;;2.00;97.40;;;;;;5033554;28;20032;-82
2021/03/15 07:24:19;;;;;;;30.55;20.52;;;2.00;97.50;;;;;;5034559;28;20096;-81
2021/03/15 07:26:46;;;;;;;29.27;20.10;;;1.90;97.40;;;;;;5034713;28;20410;-82
2021/03/15 07:29:17;;;;;;;42.57;26.40;;;1.80;97.20;;;;;;5021400;28;20041;-82
2021/03/15 07:31:49;;;;;;;35.50;21.95;;;1.90;97.60;;;;;;5034321;28;20025;-83
2021/03/15 07:34:20;;;;;;;38.65;23.77;;;1.80;97.60;;;;;;5034482;28;20025;-81
2021/03/15 07:36:58;;;;;;;41.05;24.45;;;1.80;97.80;;;;;;5032813;28;20113;-81
2021/03/15 07:39:28;;;;;;;42.13;25.15;;;1.80;98.00;;;;;;5034535;28;20024;-82
2021/03/15 07:41:55;;;;;;;41.63;27.95;;;1.90;98.00;;;;;;5035206;28;20025;-81
2021/03/15 07:44:28;;;;;;;;;;;1.90;98.00;;;;;;5035069;28;20121;-83
2021/03/15 07:47:03;;;;;;;35.97;23.42;;;2.00;98.10;;;;;;5034372;28;19999;-84
2021/03/15 07:49:39;;;;;;;37.60;25.17;;;2.10;98.20;;;;;;5033773;28;20033;-82
2021/03/15 07:52:06;;;;;;;34.95;23.15;;;2.10;98.10;;;;;;5034439;28;20037;-83
2021/03/15 07:54:34;;;;;;;;;;;2.20;98.00;;;;;;5034556;28;20024;-83
2021/03/15 07:57:11;;;;;;;;;;;2.20;98.00;;;;;;5034427;28;19909;-81
2021/03/15 07:59:41;;;;;;;35.47;24.00;;;2.10;98.00;;;;;;5042041;28;19915;-82
2021/03/15 08:02:15;;;;;;;41.00;27.73;;;2.20;98.30;;;;;;5039457;28;20404;-81
2021/03/15 08:04:41;;;;;;;35.17;23.05;;;2.20;98.30;;;;;;5049520;28;20233;-82
2021/03/15 08:07:08;;;;;;;41.40;27.63;;;2.30;98.10;;;;;;5060088;28;20365;-84
2021/03/15 08:09:34;;;;;;;35.05;22.88;;;2.20;98.10;;;;;;5067580;28;20040;-82
2021/03/15 08:12:04;;;;;;;41.20;27.40;;;2.20;98.10;;;;;;5036879;28;20029;-83
2021/03/15 08:14:33;;;;;;;42.90;26.70;;;2.30;98.20;;;;;;5053522;28;20508;-83
2021/03/15 08:17:02;;;;;;;44.15;27.35;;;2.40;98.30;;;;;;5058544;28;20485;-83
2021/03/15 08:19:31;;;;;;;41.47;29.48;;;2.40;98.20;;;;;;5049446;28;20071;-81
2021/03/15 08:22:02;;;;;;;41.22;27.95;;;2.40;98.10;;;;;;5036815;28;20025;-82
2021/03/15 08:24:32;;;;;;;44.85;27.30;;;2.40;98.00;;;;;;5073573;28;20043;-82
2021/03/15 08:27:01;;;;;;;41.05;26.45;;;2.40;98.00;;;;;;5057502;28;20048;-80
2021/03/15 08:29:27;;;;;;;41.63;28.00;;;2.40;98.00;;;;;;5058422;28;20472;-83
2021/03/15 08:31:55;;;;;;;39.40;25.73;;;2.40;98.10;;;;;;5062772;28;20386;-84
2021/03/15 08:34:24;;;;;;;44.72;27.25;;;2.50;98.10;;;;;;5059239;28;20020;-82
2021/03/15 08:36:50;;;;;;;43.60;28.73;;;2.50;97.90;;;;;;5065406;28;20111;-83
2021/03/15 08:39:38;;;;;;;45.78;29.75;;;2.40;97.80;;;;;;5067231;28;20086;-84
2021/03/15 08:42:06;;;;;;;50.75;28.30;;;2.50;98.10;;;;;;5062925;28;20020;-81
2021/03/15 08:44:42;;;;;;;42.88;27.42;;;2.60;98.10;;;;;;5058995;28;20478;-84
2021/03/15 08:47:09;;;;;;;44.65;27.90;;;2.60;97.90;;;;;;5064472;28;20059;-82
2021/03/15 08:49:38;;;;;;;45.22;28.17;;;2.60;97.90;;;;;;5052694;28;20033;-83
2021/03/15 08:52:04;;;;;;;42.10;24.73;;;2.60;97.70;;;;;;5053027;28;20056;-83
2021/03/15 08:54:47;;;;;;;47.03;27.40;;;2.50;97.70;;;;;;5053484;28;20025;-83
2021/03/15 08:57:33;;;;;;;38.25;26.52;;;2.50;97.90;;;;;;5049139;28;20477;-82
2021/03/15 09:00:00;;;;;;;41.35;26.83;;;2.50;97.80;;;;;;5030749;28;20045;-82
2021/03/15 09:02:39;;;;;;;43.78;28.20;;;2.50;97.90;;;;;;5033970;28;20375;-83
2021/03/15 09:05:31;;;;;;;40.88;26.75;;;2.50;97.90;;;;;;5033407;28;20124;-82
2021/03/15 09:07:57;;;;;;;41.13;27.35;;;2.60;98.00;;;;;;5028071;28;20084;-81
2021/03/15 09:10:22;;;;;;;44.53;29.23;;;2.60;97.70;;;;;;5033057;28;20492;-84
2021/03/15 09:13:10;;;;;;;33.10;21.45;;;2.60;97.80;;;;;;5035786;28;20101;-82
2021/03/15 09:15:37;;;;;;;37.53;26.35;;;2.60;97.60;;;;;;5038224;28;20021;-82
2021/03/15 09:18:38;;;;;;;39.10;24.70;;;2.50;97.60;;;;;;5037065;28;20022;-82
2021/03/15 09:21:26;;;;;;;33.70;20.70;;;2.50;97.70;;;;;;5031966;28;20033;-83
2021/03/15 09:23:55;;;;;;;37.03;24.08;;;2.50;97.50;;;;;;5036705;28;20084;-83
2021/03/15 09:26:24;;;;;;;37.30;25.50;;;2.50;97.80;;;;;;5037013;28;20033;-82
2021/03/15 09:28:54;;;;;;;38.05;25.48;;;2.50;97.80;;;;;;5036625;28;20068;-84
2021/03/15 09:31:20;;;;;;;41.75;27.38;;;2.50;97.70;;;;;;5036138;28;20097;-83
2021/03/15 09:33:47;;;;;;;41.83;23.08;;;2.50;97.70;;;;;;5036525;28;20032;-83
2021/03/15 09:36:26;;;;;;;36.60;23.30;;;2.50;97.70;;;;;;5037368;28;20474;-83
2021/03/15 09:38:55;;;;;;;39.40;25.85;;;2.60;97.80;;;;;;5040921;28;20036;-83
2021/03/15 09:41:22;;;;;;;32.90;23.05;;;2.60;97.80;;;;;;5036321;28;20108;-81
2021/03/15 09:43:49;;;;;;;34.55;23.55;;;2.60;97.80;;;;;;5036124;28;20036;-83
2021/03/15 09:46:15;;;;;;;31.27;18.98;;;2.70;97.90;;;;;;5036524;28;20129;-82
2021/03/15 09:48:42;;;;;;;35.58;25.05;;;2.70;97.80;;;;;;5035805;28;20092;-83
2021/03/15 09:51:08;;;;;;;34.07;22.00;;;2.70;97.70;;;;;;5035492;28;20068;-82
2021/03/15 09:53:45;;;;;;;41.80;25.42;;;2.80;97.80;;;;;;5037305;28;20324;-82
2021/03/15 09:56:16;;;;;;;36.25;24.08;;;2.90;97.70;;;;;;5034995;28;20121;-82
2021/03/15 09:58:41;;;;;;;32.78;21.08;;;2.90;97.50;;;;;;5034397;28;20449;-82
2021/03/15 10:01:23;;;;;;;32.35;21.90;;;2.90;97.40;;;;;;5035385;28;20041;-84
2021/03/15 10:03:54;;;;;;;22.45;14.95;;;2.90;97.20;;;;;;5035342;28;20049;-82
2021/03/15 10:06:20;;;;;;;35.65;23.27;;;2.90;96.90;;;;;;5035445;28;20018;-81
2021/03/15 10:08:50;;;;;;;27.23;18.93;;;2.90;96.90;;;;;;5035156;28;20038;-81
2021/03/15 10:11:16;;;;;;;30.15;21.45;;;2.90;96.90;;;;;;5035555;28;20266;-83
2021/03/15 10:13:42;;;;;;;29.00;20.15;;;2.90;96.90;;;;;;5036210;28;20025;-83
2021/03/15 10:16:08;;;;;;;35.78;20.80;;;3.00;96.80;;;;;;5036305;28;20426;-83
2021/03/15 10:18:34;;;;;;;33.70;20.55;;;3.00;96.80;;;;;;5035907;28;20029;-82
2021/03/15 10:21:00;;;;;;;37.92;21.48;;;3.10;96.80;;;;;;5035671;28;20101;-83
2021/03/15 10:23:32;;;;;;;33.38;21.13;;;3.10;96.80;;;;;;5035222;28;20304;-82
2021/03/15 10:26:05;;;;;;;30.70;23.40;;;3.10;96.60;;;;;;5018930;28;20018;-81
2021/03/15 10:28:33;;;;;;;30.05;19.85;;;3.10;96.20;;;;;;5018657;28;20033;-84
2021/03/15 10:30:59;;;;;;;;;;;3.10;96.40;;;;;;5035944;28;20482;-81
2021/03/15 10:33:26;;;;;;;32.85;22.05;;;3.20;96.50;;;;;;5017091;28;19956;-84
2021/03/15 10:35:53;;;;;;;34.58;22.00;;;3.20;96.20;;;;;;5034728;28;20032;-83
2021/03/15 10:38:27;;;;;;;33.00;23.05;;;3.20;96.40;;;;;;5034992;28;20009;-82
2021/03/15 10:40:56;;;;;;;34.95;25.20;;;3.30;96.40;;;;;;5034884;28;20033;-82
2021/03/15 10:43:23;;;;;;;37.05;21.73;;;3.40;96.30;;;;;;5020838;28;20040;-81
2021/03/15 10:45:49;;;;;;;37.35;22.77;;;3.40;96.20;;;;;;5036706;28;20382;-81
2021/03/15 10:48:15;;;;;;;31.55;21.70;;;3.30;96.00;;;;;;5037144;28;20130;-83
2021/03/15 10:50:45;;;;;;;29.48;19.80;;;3.40;96.10;;;;;;5017877;28;20517;-83
2021/03/15 10:53:23;;;;;;;34.28;21.00;;;3.40;95.80;;;;;;5019676;28;20359;-84
2021/03/15 10:55:50;;;;;;;29.23;20.67;;;3.40;95.90;;;;;;5037964;28;20025;-82
2021/03/15 10:58:18;;;;;;;35.95;21.92;;;3.30;95.80;;;;;;5036560;28;20018;-81
2021/03/15 11:00:48;;;;;;;39.80;24.63;;;3.30;95.70;;;;;;5035296;28;20049;-81
2021/03/15 11:03:30;;;;;;;29.25;20.27;;;3.30;95.50;;;;;;5034777;28;20140;-82
2021/03/15 11:06:13;;;;;;;31.83;20.42;;;3.30;95.70;;;;;;5035609;28;20018;-82
2021/03/15 11:08:40;;;;;;;31.42;22.92;;;3.40;95.60;;;;;;5035538;28;20052;-83
2021/03/15 11:11:26;;;;;;;30.73;20.00;;;3.50;95.70;;;;;;5035902;28;20022;-83
2021/03/15 11:14:00;;;;;;;36.13;22.48;;;3.50;95.50;;;;;;5035698;28;20443;-82
2021/03/15 11:16:34;;;;;;;32.85;21.92;;;3.50;95.30;;;;;;5018188;28;20030;-82
2021/03/15 11:19:16;;;;;;;30.73;20.35;;;3.50;95.20;;;;;;5035644;28;20022;-82
2021/03/15 11:21:47;;;;;;;35.65;23.20;;;3.50;94.90;;;;;;5036486;28;20028;-83
2021/03/15 11:24:14;;;;;;;27.77;15.63;;;3.60;94.90;;;;;;5036255;28;20030;-84
2021/03/15 11:26:50;;;;;;;34.88;22.95;;;3.60;94.50;;;;;;5035907;28;20194;-82
2021/03/15 11:29:19;;;;;;;28.00;20.30;;;3.60;94.70;;;;;;5017795;28;20438;-82
2021/03/15 11:31:52;;;;;;;33.05;21.52;;;3.70;94.70;;;;;;5019132;28;20017;-82
2021/03/15 11:34:25;;;;;;;34.83;22.63;;;3.80;94.60;;;;;;5038228;28;20025;-83
2021/03/15 11:36:54;;;;;;;36.60;22.90;;;3.80;94.60;;;;;;5041646;28;20017;-82
2021/03/15 11:39:20;;;;;;;31.88;20.48;;;3.90;94.50;;;;;;5046254;28;20033;-81
2021/03/15 11:41:47;;;;;;;35.65;23.48;;;3.90;94.10;;;;;;5046467;28;20030;-82
2021/03/15 11:44:14;;;;;;;34.78;21.35;;;4.00;94.30;;;;;;5020129;28;20022;-83
2021/03/15 11:46:40;;;;;;;33.53;24.37;;;4.10;94.00;;;;;;5036443;28;20028;-82
2021/03/15 11:49:06;;;;;;;34.57;21.43;;;4.10;94.00;;;;;;5036079;28;20037;-83
2021/03/15 11:51:35;;;;;;;33.53;24.20;;;4.10;94.00;;;;;;5034981;28;20014;-83
2021/03/15 11:54:01;;;;;;;34.70;23.38;;;4.20;94.00;;;;;;5024643;28;20034;-82
2021/03/15 11:56:29;;;;;;;30.60;20.77;;;4.10;93.70;;;;;;5012060;28;20032;-82
2021/03/15 11:58:58;;;;;;;29.35;17.75;;;4.00;93.60;;;;;;5033758;28;20029;-81
2021/03/15 12:01:26;;;;;;;30.02;22.50;;;3.80;93.70;;;;;;5033018;28;20073;-82
2021/03/15 12:03:54;;;;;;;34.38;21.73;;;3.80;93.90;;;;;;5033163;28;20021;-82
2021/03/15 12:06:20;;;;;;;33.28;20.52;;;3.80;94.00;;;;;;5033435;28;20021;-83
2021/03/15 12:08:50;;;;;;;34.25;21.17;;;3.70;94.00;;;;;;5033044;28;20040;-82
2021/03/15 12:11:16;;;;;;;33.58;23.00;;;3.70;94.20;;;;;;5033183;28;20056;-81
2021/03/15 12:13:41;;;;;;;35.85;20.08;;;3.70;94.30;;;;;;5033218;28;20107;-82
2021/03/15 12:16:07;;;;;;;35.42;22.98;;;3.70;94.40;;;;;;5032788;28;20014;-82
2021/03/15 12:18:33;;;;;;;35.05;20.48;;;3.70;94.50;;;;;;5033099;28;20029;-82
2021/03/15 12:20:59;;;;;;;40.17;23.30;;;3.80;94.30;;;;;;5032751;28;20025;-83
2021/03/15 12:23:25;;;;;;;35.20;21.02;;;3.70;94.30;;;;;;5032646;28;20514;-81
2021/03/15 12:25:51;;;;;;;27.40;19.15;;;3.70;94.50;;;;;;5033921;28;20026;-82
2021/03/15 12:28:17;;;;;;;39.25;22.50;;;3.70;94.40;;;;;;5032860;28;20052;-82
2021/03/15 12:30:42;;;;;;;36.10;24.05;;;3.70;94.50;;;;;;5034020;28;20045;-81
2021/03/15 12:33:08;;;;;;;35.78;24.33;;;3.70;94.50;;;;;;5034676;28;20088;-82
2021/03/15 12:35:34;;;;;;;37.22;22.23;;;3.70;94.50;;;;;;5036056;28;20060;-82
2021/03/15 12:38:00;;;;;;;35.10;22.20;;;3.70;94.50;;;;;;5033480;28;20021;-82
2021/03/15 12:40:26;;;;;;;35.15;22.45;;;3.70;94.60;;;;;;5033459;28;20021;-82
2021/03/15 12:42:51;;;;;;;38.75;24.80;;;3.60;94.50;;;;;;5033281;28;20017;-82
2021/03/15 12:45:18;;;;;;;38.40;25.85;;;3.70;94.70;;;;;;5033414;28;20025;-82
2021/03/15 12:47:43;;;;;;;35.15;22.75;;;3.80;94.80;;;;;;5034301;28;20018;-82
2021/03/15 12:50:10;;;;;;;43.05;25.65;;;3.70;94.50;;;;;;5015885;28;20112;-80
2021/03/15 12:52:35;;;;;;;37.80;23.85;;;3.80;94.60;;;;;;5015324;28;20028;-80